Time;durP1;ratioP1;P1;durP2;ratioP2;P2;SDS_P1;SDS_P2;PMS_P1;PMS_P2;Temp;Humidity;BMP_temperature;BMP_pressure;BME280_temperature;BME280_humidity;BME280_pressure;Samples;Min_cycle;Max_cycle;Signal;HPM_P1;HPM_P2
2022/08/05 00:03:33;;;;;;;0.85;0.80;;;;;;;;;;12684816;28;20243;-75
2022/08/05 00:09:34;;;;;;;0.80;0.70;;;;;;;;;;12703696;28;20032;-74
2022/08/05 00:15:36;;;;;;;1.73;1.63;;;;;;;;;;12699509;28;20043;-80
2022/08/05 00:21:38;;;;;;;1.90;1.48;;;;;;;;;;12698161;28;20514;-76
2022/08/05 00:27:39;;;;;;;1.98;1.23;;;;;;;;;;12697921;28;20032;-75
2022/08/05 00:33:41;;;;;;;2.13;1.70;;;;;;;;;;12679745;28;20036;-75
2022/08/05 00:39:43;;;;;;;2.10;1.55;;;;;;;;;;12698683;28;20499;-76
2022/08/05 00:45:46;;;;;;;1.85;1.75;;;;;;;;;;12747777;27;20103;-76
2022/08/05 00:51:48;;;;;;;2.67;1.98;;;;;;;;;;12662196;28;20032;-81
2022/08/05 00:57:50;;;;;;;1.80;1.70;;;;;;;;;;12660942;28;20048;-75
2022/08/05 01:03:52;;;;;;;2.00;1.60;;;;;;;;;;12696025;28;20046;-77
2022/08/05 01:09:54;;;;;;;1.60;1.38;;;;;;;;;;12695808;28;20027;-76
2022/08/05 01:16:01;;;;;;;1.35;1.30;;;;;;;;;;12695831;28;20368;-76
2022/08/05 01:22:06;;;;;;;1.80;1.70;;;;;;;;;;12695865;28;20040;-81
2022/08/05 01:28:07;;;;;;;2.22;1.75;;;;;;;;;;12695168;28;20032;-81
2022/08/05 01:34:11;;;;;;;1.40;1.30;;;;;;;;;;12661022;28;20051;-76
2022/08/05 01:40:14;;;;;;;1.63;1.52;;;;;;;;;;12676724;28;20329;-76
2022/08/05 01:46:16;;;;;;;1.70;1.60;;;;;;;;;;12696200;28;20031;-80
2022/08/05 01:52:19;;;;;;;1.48;1.35;;;;;;;;;;12697731;27;20047;-81
2022/08/05 01:58:21;;;;;;;2.25;1.45;;;;;;;;;;12661335;28;20035;-80
2022/08/05 02:04:23;;;;;;;1.50;1.40;;;;;;;;;;12678844;28;20039;-75
2022/08/05 02:10:27;;;;;;;1.50;1.27;;;;;;;;;;12683130;28;20043;-75
2022/08/05 02:16:41;;;;;;;1.92;1.83;;;;;;;;;;12710321;27;20038;-75
2022/08/05 02:22:44;;;;;;;1.50;1.40;;;;;;;;;;12690186;27;20051;-75
2022/08/05 02:28:47;;;;;;;1.48;1.38;;;;;;;;;;12706553;28;20024;-80
2022/08/05 02:34:49;;;;;;;1.63;1.52;;;;;;;;;;12672948;28;20056;-80
2022/08/05 02:40:53;;;;;;;2.08;1.73;;;;;;;;;;12692498;27;20040;-80
2022/08/05 02:46:56;;;;;;;1.80;1.65;;;;;;;;;;12717785;27;20035;-81
2022/08/05 02:52:59;;;;;;;2.20;1.45;;;;;;;;;;12684322;28;20529;-76
2022/08/05 02:59:01;;;;;;;2.13;1.77;;;;;;;;;;12702363;28;20065;-75
2022/08/05 03:05:03;;;;;;;1.85;1.75;;;;;;;;;;12683912;28;20039;-76
2022/08/05 03:11:16;;;;;;;1.80;1.65;;;;;;;;;;12683291;28;20475;-76
2022/08/05 03:17:17;;;;;;;2.00;1.88;;;;;;;;;;12701603;28;20054;-81
2022/08/05 03:23:19;;;;;;;2.13;2.03;;;;;;;;;;12683222;28;20054;-80
2022/08/05 03:29:21;;;;;;;1.90;1.80;;;;;;;;;;12684873;28;20042;-80
2022/08/05 03:35:22;;;;;;;2.08;1.90;;;;;;;;;;12682527;28;20507;-80
2022/08/05 03:41:24;;;;;;;2.10;1.90;;;;;;;;;;12700697;28;20039;-81
2022/08/05 03:47:26;;;;;;;2.33;2.13;;;;;;;;;;12700891;28;20028;-76
2022/08/05 03:53:36;;;;;;;2.55;2.30;;;;;;;;;;12688236;27;20043;-80
2022/08/05 03:59:43;;;;;;;2.25;2.13;;;;;;;;;;12705993;27;20036;-75
2022/08/05 04:05:45;;;;;;;2.30;2.10;;;;;;;;;;12709681;27;20046;-75
2022/08/05 04:11:46;;;;;;;2.80;2.60;;;;;;;;;;12700145;28;20027;-75
2022/08/05 04:17:48;;;;;;;1.77;1.67;;;;;;;;;;12680351;28;20032;-75
2022/08/05 04:23:50;;;;;;;2.20;2.00;;;;;;;;;;12679708;28;20043;-75
2022/08/05 04:29:52;;;;;;;1.85;1.75;;;;;;;;;;12679799;28;20031;-75
2022/08/05 04:35:53;;;;;;;;;;;;;;;;;;12679793;28;20058;-75
2022/08/05 04:41:55;;;;;;;2.25;2.15;;;;;;;;;;12662307;28;19916;-80
2022/08/05 04:48:07;;;;;;;2.40;2.20;;;;;;;;;;12663142;28;20031;-80
2022/08/05 04:54:09;;;;;;;2.13;1.98;;;;;;;;;;12698043;28;20387;-76
2022/08/05 05:00:10;;;;;;;;;;;;;;;;;;12683732;28;20052;-77
2022/08/05 05:06:32;;;;;;;2.50;2.30;;;;;;;;;;12699960;28;19912;-76
2022/08/05 05:12:33;;;;;;;;;;;;;;;;;;12697470;28;20036;-76
2022/08/05 05:18:35;;;;;;;4.00;2.72;;;;;;;;;;12682630;27;19920;-79
2022/08/05 05:24:37;;;;;;;3.38;3.10;;;;;;;;;;12664427;28;20031;-76
2022/08/05 05:30:39;;;;;;;2.50;2.30;;;;;;;;;;12662439;28;20036;-75
2022/08/05 05:36:59;;;;;;;3.05;2.63;;;;;;;;;;12696610;28;20070;-78
2022/08/05 05:43:01;;;;;;;2.13;1.75;;;;;;;;;;12701157;27;20376;-75
2022/08/05 05:49:03;;;;;;;3.20;2.50;;;;;;;;;;12677662;28;20031;-80
2022/08/05 05:55:08;;;;;;;3.30;3.10;;;;;;;;;;12696741;28;20036;-76
2022/08/05 06:01:09;;;;;;;2.90;2.70;;;;;;;;;;12677691;28;20066;-75
2022/08/05 06:07:31;;;;;;;3.15;2.85;;;;;;;;;;12699328;27;20265;-76
2022/08/05 06:13:33;;;;;;;1.75;1.65;;;;;;;;;;12695184;28;20047;-76
2022/08/05 06:19:34;;;;;;;3.85;3.55;;;;;;;;;;12696203;28;20483;-81
2022/08/05 06:25:36;;;;;;;2.92;2.55;;;;;;;;;;12701534;27;20036;-76
2022/08/05 06:31:38;;;;;;;1.88;1.77;;;;;;;;;;12696946;28;20023;-76
2022/08/05 06:37:42;;;;;;;1.90;1.80;;;;;;;;;;12693556;28;20423;-81
2022/08/05 06:43:44;;;;;;;1.63;1.50;;;;;;;;;;12658579;28;20055;-80
2022/08/05 06:49:46;;;;;;;2.08;1.95;;;;;;;;;;12675306;28;20042;-80
2022/08/05 06:55:48;;;;;;;2.28;2.17;;;;;;;;;;12676615;28;20032;-80
2022/08/05 07:01:49;;;;;;;2.08;1.80;;;;;;;;;;12667352;28;20036;-79
2022/08/05 07:07:51;;;;;;;2.17;1.70;;;;;;;;;;12704211;28;20036;-76
2022/08/05 07:20:13;;;;;;;1.90;1.60;;;;;;;;;;12683931;28;20055;-75
2022/08/05 07:26:15;;;;;;;2.22;1.83;;;;;;;;;;12696635;27;20032;-75
2022/08/05 07:32:17;;;;;;;2.17;1.60;;;;;;;;;;12684036;28;20028;-75
2022/08/05 07:38:20;;;;;;;3.13;2.85;;;;;;;;;;12704666;27;20054;-75
2022/08/05 07:44:23;;;;;;;1.50;1.40;;;;;;;;;;12708822;27;20387;-80
2022/08/05 07:50:25;;;;;;;3.17;1.65;;;;;;;;;;12682724;28;20031;-79
2022/08/05 07:56:26;;;;;;;1.92;1.52;;;;;;;;;;12704989;27;20036;-76
2022/08/05 08:02:28;;;;;;;1.73;1.63;;;;;;;;;;12681795;28;20036;-75
2022/08/05 08:08:30;;;;;;;2.30;1.20;;;;;;;;;;12680920;28;20052;-76
2022/08/05 08:14:32;;;;;;;0.93;0.93;;;;;;;;;;12701738;28;20487;-76
2022/08/05 08:20:34;;;;;;;1.73;1.20;;;;;;;;;;12698625;28;20044;-77
2022/08/05 08:26:36;;;;;;;1.63;1.30;;;;;;;;;;12698183;28;20031;-75
2022/08/05 08:32:37;;;;;;;2.90;1.20;;;;;;;;;;12682184;27;20046;-79
2022/08/05 08:38:39;;;;;;;1.30;1.20;;;;;;;;;;12703935;27;20229;-80
2022/08/05 08:44:41;;;;;;;1.13;1.13;;;;;;;;;;12697572;28;20035;-75
2022/08/05 08:50:43;;;;;;;1.00;1.00;;;;;;;;;;12700283;27;20035;-74
2022/08/05 08:56:45;;;;;;;1.88;0.82;;;;;;;;;;12708392;27;20043;-79
2022/08/05 09:02:48;;;;;;;1.10;0.98;;;;;;;;;;12702121;27;20074;-75
2022/08/05 09:08:50;;;;;;;0.65;0.65;;;;;;;;;;12697293;28;20032;-75
2022/08/05 09:14:52;;;;;;;0.70;0.70;;;;;;;;;;12678502;28;20036;-75
2022/08/05 09:20:54;;;;;;;2.05;0.63;;;;;;;;;;12662975;28;20502;-80
2022/08/05 09:26:57;;;;;;;1.10;1.10;;;;;;;;;;12696152;28;20192;-79
2022/08/05 09:33:01;;;;;;;1.38;1.00;;;;;;;;;;12678143;28;20398;-79
2022/08/05 09:39:05;;;;;;;2.53;0.88;;;;;;;;;;12695876;28;20402;-79
2022/08/05 09:45:09;;;;;;;2.03;0.90;;;;;;;;;;12697768;27;20043;-75
2022/08/05 09:51:11;;;;;;;4.43;1.42;;;;;;;;;;12700206;27;20036;-75
2022/08/05 09:57:27;;;;;;;0.80;0.80;;;;;;;;;;12677931;28;20628;-75
2022/08/05 10:03:29;;;;;;;0.80;0.80;;;;;;;;;;12676920;28;20055;-74
2022/08/05 10:09:31;;;;;;;0.85;0.70;;;;;;;;;;12676411;28;20035;-75
2022/08/05 10:15:34;;;;;;;1.70;1.00;;;;;;;;;;12693802;28;20387;-75
2022/08/05 10:21:35;;;;;;;1.45;0.82;;;;;;;;;;12694012;28;20036;-76
2022/08/05 10:27:38;;;;;;;1.75;0.70;;;;;;;;;;12675390;28;20031;-80
2022/08/05 10:33:40;;;;;;;1.02;0.90;;;;;;;;;;12667417;28;20031;-76
2022/08/05 10:39:45;;;;;;;1.27;1.17;;;;;;;;;;12702992;28;20051;-76
2022/08/05 10:45:57;;;;;;;1.40;1.00;;;;;;;;;;12703109;28;20487;-75
2022/08/05 10:52:01;;;;;;;1.30;1.20;;;;;;;;;;12702863;28;20035;-75
2022/08/05 10:58:08;;;;;;;1.50;1.40;;;;;;;;;;12701951;28;20031;-75
2022/08/05 11:04:10;;;;;;;0.80;0.80;;;;;;;;;;12670510;27;20403;-75
2022/08/05 11:10:21;;;;;;;1.23;1.10;;;;;;;;;;12683443;28;20089;-76
2022/08/05 11:16:23;;;;;;;1.58;0.82;;;;;;;;;;12701162;28;20054;-75
2022/08/05 11:22:37;;;;;;;1.50;0.90;;;;;;;;;;12682853;28;20050;-79
2022/08/05 11:28:41;;;;;;;1.55;1.05;;;;;;;;;;12666407;28;20058;-80
2022/08/05 11:34:43;;;;;;;0.70;0.70;;;;;;;;;;12682327;28;20511;-80
2022/08/05 11:41:02;;;;;;;0.60;0.60;;;;;;;;;;12681669;28;20047;-80
2022/08/05 11:47:04;;;;;;;2.15;0.90;;;;;;;;;;12706291;28;20036;-79
2022/08/05 11:53:05;;;;;;;1.85;0.80;;;;;;;;;;12744939;27;20040;-80
2022/08/05 11:59:12;;;;;;;0.98;0.75;;;;;;;;;;12699613;28;20049;-80
2022/08/05 12:05:25;;;;;;;1.52;1.10;;;;;;;;;;12699465;28;20035;-79
2022/08/05 12:11:27;;;;;;;2.90;1.15;;;;;;;;;;12699022;28;20480;-79
2022/08/05 12:17:35;;;;;;;1.50;1.10;;;;;;;;;;12680816;28;20032;-79
2022/08/05 12:23:37;;;;;;;2.08;1.10;;;;;;;;;;12680889;28;20046;-79
2022/08/05 12:29:39;;;;;;;1.02;0.90;;;;;;;;;;12699153;28;20035;-75
2022/08/05 12:35:41;;;;;;;1.77;0.70;;;;;;;;;;12697553;28;20060;-75
2022/08/05 12:41:43;;;;;;;0.90;0.70;;;;;;;;;;12696768;28;20043;-76
2022/08/05 12:47:44;;;;;;;1.15;0.90;;;;;;;;;;12678639;28;20040;-76
2022/08/05 12:53:46;;;;;;;10.77;2.75;;;;;;;;;;12695611;28;20039;-76
2022/08/05 12:59:49;;;;;;;12.23;2.80;;;;;;;;;;12678538;28;20035;-75
2022/08/05 13:05:51;;;;;;;2.30;1.27;;;;;;;;;;12701111;28;20535;-75
2022/08/05 13:12:01;;;;;;;2.20;1.10;;;;;;;;;;12696135;28;20031;-75
2022/08/05 13:18:03;;;;;;;2.10;0.90;;;;;;;;;;12660668;28;20032;-76
2022/08/05 13:24:06;;;;;;;0.82;0.80;;;;;;;;;;12677289;28;20039;-79
2022/08/05 13:30:11;;;;;;;1.08;1.00;;;;;;;;;;12676630;28;20043;-80
2022/08/05 13:36:13;;;;;;;0.82;0.70;;;;;;;;;;12660397;28;20052;-75
2022/08/05 13:42:15;;;;;;;1.58;0.85;;;;;;;;;;12677803;28;20039;-75
2022/08/05 13:48:17;;;;;;;2.15;0.80;;;;;;;;;;12695568;28;20501;-74
2022/08/05 13:54:19;;;;;;;2.08;0.70;;;;;;;;;;12662241;28;20047;-79
2022/08/05 14:00:21;;;;;;;1.23;0.80;;;;;;;;;;12679650;28;20043;-77
2022/08/05 14:06:22;;;;;;;1.20;0.75;;;;;;;;;;12699297;28;20047;-75
2022/08/05 14:12:24;;;;;;;1.05;0.80;;;;;;;;;;12704572;28;20036;-74
2022/08/05 14:18:26;;;;;;;1.08;0.80;;;;;;;;;;12704167;28;20031;-75
2022/08/05 14:24:28;;;;;;;1.50;0.70;;;;;;;;;;12703943;28;20047;-79
2022/08/05 14:30:29;;;;;;;1.38;0.57;;;;;;;;;;12685209;28;20070;-80
2022/08/05 14:36:31;;;;;;;0.70;0.70;;;;;;;;;;12685835;28;20056;-80
2022/08/05 14:42:33;;;;;;;0.68;0.57;;;;;;;;;;12703506;28;20491;-76
2022/08/05 14:48:35;;;;;;;0.50;0.50;;;;;;;;;;12703628;28;20056;-79
2022/08/05 14:54:36;;;;;;;2.38;0.75;;;;;;;;;;12707008;28;20285;-77
2022/08/05 15:00:39;;;;;;;0.75;0.73;;;;;;;;;;12685861;28;20046;-76
2022/08/05 15:06:41;;;;;;;0.98;0.60;;;;;;;;;;12685257;28;20054;-80
2022/08/05 15:12:42;;;;;;;1.95;1.00;;;;;;;;;;12703254;28;20035;-79
2022/08/05 15:18:44;;;;;;;0.60;0.50;;;;;;;;;;12692507;27;20043;-75
2022/08/05 15:24:46;;;;;;;0.50;0.50;;;;;;;;;;12672641;28;20040;-79
2022/08/05 15:30:47;;;;;;;0.73;0.60;;;;;;;;;;12701910;28;20379;-79
2022/08/05 15:36:49;;;;;;;0.40;0.40;;;;;;;;;;12682524;28;20055;-76
2022/08/05 15:42:52;;;;;;;2.42;0.77;;;;;;;;;;12700252;28;20051;-76
2022/08/05 15:48:54;;;;;;;1.20;0.55;;;;;;;;;;12699898;28;20035;-76
2022/08/05 15:54:56;;;;;;;0.70;0.70;;;;;;;;;;12699654;28;20061;-76
2022/08/05 16:00:58;;;;;;;1.15;0.52;;;;;;;;;;12680579;28;20028;-76
2022/08/05 16:07:01;;;;;;;0.60;0.60;;;;;;;;;;12703661;27;20043;-75
2022/08/05 16:13:02;;;;;;;0.63;0.60;;;;;;;;;;12681974;28;20505;-80
2022/08/05 16:19:04;;;;;;;0.90;0.60;;;;;;;;;;12700147;28;20027;-76
2022/08/05 16:25:06;;;;;;;0.90;0.30;;;;;;;;;;12704958;28;20035;-75
2022/08/05 16:31:08;;;;;;;0.30;0.30;;;;;;;;;;12704777;27;20040;-75
2022/08/05 16:37:10;;;;;;;0.30;0.30;;;;;;;;;;12698487;28;20051;-79
2022/08/05 16:43:11;;;;;;;0.68;0.40;;;;;;;;;;12698077;28;20047;-80
2022/08/05 16:49:13;;;;;;;1.13;0.40;;;;;;;;;;12701047;28;20039;-76
2022/08/05 16:55:15;;;;;;;0.30;0.30;;;;;;;;;;12706942;27;20032;-76
2022/08/05 17:01:16;;;;;;;1.17;0.30;;;;;;;;;;12698585;28;20047;-80
2022/08/05 17:07:19;;;;;;;0.20;0.20;;;;;;;;;;12709919;27;20035;-76
2022/08/05 17:13:21;;;;;;;0.43;0.30;;;;;;;;;;12696063;28;20035;-80
2022/08/05 17:19:22;;;;;;;1.48;0.60;;;;;;;;;;12660469;28;20039;-80
2022/08/05 17:25:25;;;;;;;2.03;0.65;;;;;;;;;;12696547;28;20035;-80
2022/08/05 17:31:26;;;;;;;0.50;0.43;;;;;;;;;;12677780;28;20034;-82
2022/08/05 17:37:28;;;;;;;0.82;0.75;;;;;;;;;;12695137;28;20052;-81
2022/08/05 17:43:30;;;;;;;0.90;0.70;;;;;;;;;;12697299;27;20047;-79
2022/08/05 17:49:32;;;;;;;1.65;1.00;;;;;;;;;;12695834;28;20035;-80
2022/08/05 17:55:34;;;;;;;0.65;0.60;;;;;;;;;;12699035;27;20035;-80
2022/08/05 18:01:36;;;;;;;0.60;0.60;;;;;;;;;;12678797;28;20040;-76
2022/08/05 18:07:37;;;;;;;0.65;0.50;;;;;;;;;;12702721;27;20040;-75
2022/08/05 18:13:39;;;;;;;1.00;0.73;;;;;;;;;;12699177;27;20039;-80
2022/08/05 18:19:41;;;;;;;0.75;0.50;;;;;;;;;;12695265;28;20039;-80
2022/08/05 18:25:43;;;;;;;0.77;0.50;;;;;;;;;;12662011;28;20035;-75
2022/08/05 18:31:44;;;;;;;2.08;0.60;;;;;;;;;;12697075;27;20047;-76
2022/08/05 18:37:46;;;;;;;0.40;0.40;;;;;;;;;;12693982;28;20054;-75
2022/08/05 18:43:48;;;;;;;0.73;0.50;;;;;;;;;;12693608;28;20039;-75
2022/08/05 18:56:11;;;;;;;0.77;0.40;;;;;;;;;;12702613;28;20040;-76
2022/08/05 19:02:13;;;;;;;1.40;0.50;;;;;;;;;;12684244;28;20052;-76
2022/08/05 19:08:14;;;;;;;0.95;0.60;;;;;;;;;;12701729;28;20042;-79
2022/08/05 19:14:17;;;;;;;0.50;0.50;;;;;;;;;;12667320;28;20024;-80
2022/08/05 19:20:19;;;;;;;0.45;0.45;;;;;;;;;;12667457;28;20035;-79
2022/08/05 19:26:22;;;;;;;0.60;0.60;;;;;;;;;;12701512;28;20039;-80
2022/08/05 19:32:24;;;;;;;0.60;0.55;;;;;;;;;;12686485;28;20027;-75
2022/08/05 19:38:26;;;;;;;0.80;0.80;;;;;;;;;;12700322;28;20056;-75
2022/08/05 19:44:28;;;;;;;1.13;0.65;;;;;;;;;;12681846;28;20040;-76
2022/08/05 19:50:30;;;;;;;0.57;0.57;;;;;;;;;;12681772;28;20354;-80
2022/08/05 19:56:31;;;;;;;1.10;0.70;;;;;;;;;;12681444;28;20042;-80
2022/08/05 20:02:33;;;;;;;2.13;1.25;;;;;;;;;;12680523;28;20046;-80
2022/08/05 20:08:35;;;;;;;1.15;1.10;;;;;;;;;;12664972;28;20039;-79
2022/08/05 20:14:37;;;;;;;1.05;0.95;;;;;;;;;;12681377;28;20039;-79
2022/08/05 20:20:42;;;;;;;1.20;1.10;;;;;;;;;;12698650;28;20039;-75
2022/08/05 20:26:44;;;;;;;1.45;1.25;;;;;;;;;;12698140;28;20035;-75
2022/08/05 20:32:46;;;;;;;2.30;1.20;;;;;;;;;;12697929;28;20032;-80
2022/08/05 20:38:48;;;;;;;1.55;1.10;;;;;;;;;;12679191;28;20052;-80
2022/08/05 20:44:50;;;;;;;1.48;1.35;;;;;;;;;;12700613;28;20514;-79
2022/08/05 20:50:52;;;;;;;2.03;1.27;;;;;;;;;;12747655;27;20385;-79
2022/08/05 20:56:54;;;;;;;2.33;1.30;;;;;;;;;;12662079;28;20039;-80
2022/08/05 21:02:58;;;;;;;2.20;1.30;;;;;;;;;;12678200;28;20040;-76
2022/08/05 21:09:00;;;;;;;1.90;1.20;;;;;;;;;;12697269;28;20035;-75
2022/08/05 21:15:02;;;;;;;2.80;2.50;;;;;;;;;;12677286;28;20042;-74
2022/08/05 21:21:04;;;;;;;3.33;2.45;;;;;;;;;;12678369;28;20051;-75
2022/08/05 21:27:06;;;;;;;3.42;3.03;;;;;;;;;;12677583;28;20034;-75
2022/08/05 21:33:09;;;;;;;3.63;2.72;;;;;;;;;;12695677;28;20031;-80
2022/08/05 21:39:11;;;;;;;3.45;2.15;;;;;;;;;;12677195;28;20066;-79
2022/08/05 21:45:14;;;;;;;2.17;1.98;;;;;;;;;;12676926;28;20050;-80
2022/08/05 21:51:16;;;;;;;1.83;1.73;;;;;;;;;;12676904;28;20034;-79
2022/08/05 21:57:18;;;;;;;2.25;1.98;;;;;;;;;;12694863;28;20027;-79
2022/08/05 22:03:20;;;;;;;1.85;1.75;;;;;;;;;;12678353;28;20036;-78
2022/08/05 22:09:21;;;;;;;2.78;1.98;;;;;;;;;;12677643;28;20502;-80
2022/08/05 22:15:24;;;;;;;2.13;1.50;;;;;;;;;;12694368;28;20024;-79
2022/08/05 22:21:26;;;;;;;1.50;1.25;;;;;;;;;;12676114;28;20480;-75
2022/08/05 22:27:43;;;;;;;1.58;1.25;;;;;;;;;;12680127;28;20027;-79
2022/08/05 22:33:45;;;;;;;1.75;1.55;;;;;;;;;;12681598;27;20282;-80
2022/08/05 22:39:47;;;;;;;3.90;1.35;;;;;;;;;;12685233;28;20044;-79
2022/08/05 22:45:49;;;;;;;2.15;1.98;;;;;;;;;;12689276;28;20498;-75
2022/08/05 22:51:50;;;;;;;2.65;1.30;;;;;;;;;;12685181;28;20028;-75
2022/08/05 22:57:53;;;;;;;1.50;1.38;;;;;;;;;;12703660;28;20488;-75
2022/08/05 23:03:55;;;;;;;1.27;1.17;;;;;;;;;;12708316;27;20055;-79
2022/08/05 23:09:57;;;;;;;1.80;1.70;;;;;;;;;;12682206;28;20028;-79
2022/08/05 23:15:59;;;;;;;1.95;1.67;;;;;;;;;;12700153;28;20028;-75
2022/08/05 23:22:01;;;;;;;1.50;1.40;;;;;;;;;;12699256;28;20035;-75
2022/08/05 23:28:03;;;;;;;2.20;2.00;;;;;;;;;;12699188;28;20376;-75
2022/08/05 23:34:04;;;;;;;1.60;1.50;;;;;;;;;;12681898;28;20394;-75
2022/08/05 23:40:06;;;;;;;1.83;1.73;;;;;;;;;;12702057;28;20055;-79
2022/08/05 23:46:08;;;;;;;1.88;1.30;;;;;;;;;;12685616;27;20132;-75
2022/08/05 23:52:25;;;;;;;1.73;1.48;;;;;;;;;;12705450;27;20383;-79
2022/08/05 23:58:27;;;;;;;1.45;1.35;;;;;;;;;;12683180;28;20031;-75
